createdAt,value
2022-08-22T00:00:14.920Z,76.90
2022-08-22T00:02:58.606Z,67.60
2022-08-22T00:03:01.580Z,67.70
2022-08-22T00:03:17.494Z,77.10
2022-08-22T00:06:09.793Z,77.10
2022-08-22T00:08:49.587Z,77.20
2022-08-22T00:11:30.629Z,77.40
2022-08-22T00:14:21.190Z,77.30
2022-08-22T00:17:24.241Z,77.40
2022-08-22T00:20:43.505Z,77.50
2022-08-22T00:23:22.483Z,77.60
2022-08-22T00:25:59.180Z,77.60
2022-08-22T00:28:36.271Z,77.70
2022-08-22T00:31:31.822Z,77.80
2022-08-22T00:33:58.326Z,77.90
2022-08-22T00:36:37.554Z,78.10
2022-08-22T00:39:13.715Z,78.10
2022-08-22T00:42:04.133Z,78.30
2022-08-22T00:44:42.988Z,78.50
2022-08-22T00:47:50.464Z,78.60
2022-08-22T00:50:41.571Z,78.70
2022-08-22T00:53:36.111Z,78.70
2022-08-22T00:56:21.553Z,78.80
2022-08-22T00:59:18.083Z,79.20
2022-08-22T01:02:21.036Z,79.10
2022-08-22T01:04:57.144Z,79.00
2022-08-22T01:07:30.492Z,79.10
2022-08-22T01:10:38.881Z,79.10
2022-08-22T01:13:27.391Z,79.20
2022-08-22T01:16:36.341Z,79.40
2022-08-22T01:19:11.497Z,79.40
2022-08-22T01:21:59.793Z,79.50
2022-08-22T01:25:22.621Z,79.70
2022-08-22T01:28:30.422Z,79.80
2022-08-22T01:31:19.734Z,79.90
2022-08-22T01:34:23.813Z,79.90
2022-08-22T01:37:22.391Z,79.90
2022-08-22T01:39:59.571Z,80.00
2022-08-22T01:42:50.473Z,80.00
2022-08-22T01:45:32.503Z,80.00
2022-08-22T01:48:20.363Z,79.90
2022-08-22T01:50:53.485Z,80.00
2022-08-22T01:53:29.676Z,80.10
2022-08-22T01:56:19.566Z,80.10
2022-08-22T01:58:57.595Z,80.10
2022-08-22T02:01:48.011Z,80.10
2022-08-22T02:04:41.985Z,80.30
2022-08-22T02:07:33.998Z,80.40
2022-08-22T02:10:38.052Z,80.30
2022-08-22T02:13:13.571Z,80.30
2022-08-22T02:15:40.083Z,80.30
2022-08-22T02:18:06.689Z,80.30
2022-08-22T02:20:39.431Z,80.30
2022-08-22T02:23:24.848Z,80.40
2022-08-22T02:26:09.533Z,80.30
2022-08-22T02:28:52.490Z,80.30
2022-08-22T02:31:42.628Z,80.40
2022-08-22T02:34:42.213Z,80.30
2022-08-22T02:37:58.168Z,80.50
2022-08-22T02:40:41.132Z,80.60
2022-08-22T02:43:33.968Z,80.70
2022-08-22T02:46:17.059Z,80.70
2022-08-22T02:49:09.116Z,80.60
2022-08-22T02:52:02.107Z,80.60
2022-08-22T02:54:48.659Z,80.50
2022-08-22T02:57:28.492Z,80.50
2022-08-22T03:00:32.476Z,80.70
2022-08-22T03:03:14.110Z,80.70
2022-08-22T03:06:01.096Z,80.70
2022-08-22T03:08:38.376Z,80.70
2022-08-22T03:11:21.229Z,80.60
2022-08-22T03:13:58.821Z,80.70
2022-08-22T03:16:28.085Z,80.60
2022-08-22T03:19:18.688Z,80.70
2022-08-22T03:22:02.869Z,80.70
2022-08-22T03:24:56.849Z,80.70
2022-08-22T03:27:50.066Z,80.60
2022-08-22T03:30:22.641Z,80.60
2022-08-22T03:32:58.997Z,80.60
2022-08-22T03:35:50.863Z,80.60
2022-08-22T03:38:26.348Z,80.60
2022-08-22T03:41:12.517Z,80.60
2022-08-22T03:43:57.105Z,80.60
2022-08-22T03:46:39.039Z,80.70
2022-08-22T03:49:35.214Z,80.70
2022-08-22T03:52:19.113Z,80.70
2022-08-22T03:55:16.784Z,80.80
2022-08-22T03:58:28.249Z,80.90
2022-08-22T04:01:39.618Z,80.70
2022-08-22T04:04:19.487Z,80.80
2022-08-22T04:07:05.469Z,80.70
2022-08-22T04:10:17.975Z,80.70
2022-08-22T04:12:53.516Z,80.60
2022-08-22T04:15:35.088Z,80.80
2022-08-22T04:18:30.254Z,83.00
2022-08-22T04:21:16.233Z,84.80
2022-08-22T04:23:43.261Z,85.80
2022-08-22T04:26:41.513Z,87.80
2022-08-22T04:29:17.620Z,87.10
2022-08-22T04:31:53.639Z,87.00
2022-08-22T04:34:30.090Z,87.90
2022-08-22T04:37:09.787Z,88.00
2022-08-22T04:39:53.437Z,88.00
2022-08-22T04:42:33.681Z,88.30
2022-08-22T04:48:21.304Z,88.50
2022-08-22T04:50:57.682Z,88.60
2022-08-22T04:53:52.452Z,88.60
2022-08-22T04:57:06.826Z,88.70
2022-08-22T04:59:34.748Z,88.70
2022-08-22T05:02:07.026Z,89.30
2022-08-22T05:04:45.293Z,89.60
2022-08-22T05:07:16.955Z,90.00
2022-08-22T05:09:52.253Z,90.00
2022-08-22T05:12:30.572Z,89.10
2022-08-22T05:15:15.079Z,87.00
2022-08-22T05:17:48.692Z,85.40
2022-08-22T05:20:21.113Z,85.20
2022-08-22T05:22:52.713Z,83.20
2022-08-22T05:25:24.641Z,83.70
2022-08-22T05:28:15.772Z,82.80
2022-08-22T05:30:45.844Z,83.30
2022-08-22T05:33:22.632Z,83.20
2022-08-22T05:36:04.603Z,83.20
2022-08-22T05:38:34.730Z,83.30
2022-08-22T05:41:16.893Z,83.50
2022-08-22T05:43:45.037Z,83.30
2022-08-22T05:46:26.160Z,83.40
2022-08-22T05:49:00.220Z,83.70
2022-08-22T05:52:05.021Z,83.50
2022-08-22T05:54:40.956Z,83.60
2022-08-22T05:57:23.155Z,83.50
2022-08-22T05:59:58.898Z,83.60
2022-08-22T06:02:40.012Z,83.60
2022-08-22T06:05:11.912Z,83.60
2022-08-22T06:07:44.504Z,83.40
2022-08-22T06:10:29.580Z,83.50
2022-08-22T06:13:11.455Z,83.50
2022-08-22T06:16:02.784Z,83.20
2022-08-22T06:18:31.345Z,83.50
2022-08-22T06:21:02.114Z,83.50
2022-08-22T06:23:38.633Z,83.30
2022-08-22T06:26:05.709Z,83.60
2022-08-22T06:28:55.379Z,83.20
2022-08-22T06:31:35.461Z,82.80
2022-08-22T06:34:14.057Z,82.60
2022-08-22T06:36:45.490Z,82.50
2022-08-22T06:39:23.847Z,82.70
2022-08-22T06:42:15.832Z,82.70
2022-08-22T06:44:53.777Z,82.90
2022-08-22T06:47:31.473Z,83.00
2022-08-22T06:50:23.189Z,83.00
2022-08-22T06:53:15.601Z,82.80
2022-08-22T06:55:47.359Z,82.60
2022-08-22T06:58:20.988Z,82.60
2022-08-22T07:01:05.217Z,82.80
2022-08-22T07:03:43.212Z,83.30
2022-08-22T07:06:17.248Z,84.50
2022-08-22T07:08:44.543Z,85.00
2022-08-22T07:11:33.876Z,85.00
2022-08-22T07:14:03.909Z,84.90
2022-08-22T07:16:35.540Z,85.50
2022-08-22T07:19:02.573Z,84.40
2022-08-22T07:21:45.460Z,84.50
2022-08-22T07:24:19.711Z,84.60
2022-08-22T07:27:01.313Z,84.50
2022-08-22T07:29:57.907Z,84.20
2022-08-22T07:32:33.136Z,84.30
2022-08-22T07:35:08.734Z,84.20
2022-08-22T07:37:54.331Z,84.20
2022-08-22T07:40:27.324Z,84.10
2022-08-22T07:43:27.255Z,84.50
2022-08-22T07:46:22.838Z,84.60
2022-08-22T07:49:21.201Z,83.90
2022-08-22T07:52:10.376Z,84.20
2022-08-22T07:54:55.089Z,84.20
2022-08-22T07:57:31.435Z,84.60
2022-08-22T08:00:00.381Z,84.20
2022-08-22T08:02:27.963Z,83.70
2022-08-22T08:04:57.478Z,83.80
2022-08-22T08:07:27.830Z,83.50
2022-08-22T08:10:01.085Z,83.80
2022-08-22T08:12:41.439Z,83.90
2022-08-22T08:15:15.511Z,83.60
2022-08-22T08:17:44.365Z,84.00
2022-08-22T08:20:15.921Z,83.90
2022-08-22T08:22:45.889Z,84.20
2022-08-22T08:25:16.521Z,83.50
2022-08-22T08:28:09.944Z,83.40
2022-08-22T08:30:47.006Z,83.90
2022-08-22T08:33:24.839Z,83.50
2022-08-22T08:36:03.960Z,83.00
2022-08-22T08:38:46.747Z,83.40
2022-08-22T08:41:22.524Z,83.20
2022-08-22T08:44:08.237Z,83.10
2022-08-22T08:46:58.689Z,82.80
2022-08-22T08:49:57.793Z,81.70
2022-08-22T08:52:49.983Z,81.50
2022-08-22T08:55:37.255Z,82.00
2022-08-22T08:58:32.647Z,81.90
2022-08-22T09:01:27.507Z,81.30
2022-08-22T09:04:20.864Z,81.10
2022-08-22T09:07:02.403Z,80.70
2022-08-22T09:13:11.585Z,80.50
2022-08-22T09:15:59.752Z,80.40
2022-08-22T09:19:17.597Z,80.40
2022-08-22T09:22:05.365Z,80.40
2022-08-22T09:24:58.707Z,80.50
2022-08-22T09:27:25.285Z,80.50
2022-08-22T09:30:19.775Z,80.50
2022-08-22T09:33:01.147Z,80.50
2022-08-22T09:35:53.563Z,80.60
2022-08-22T09:38:38.155Z,80.80
2022-08-22T09:40:15.394Z,80.60
2022-08-22T09:41:23.335Z,81.30
2022-08-22T09:44:08.717Z,81.50
2022-08-22T09:47:02.880Z,81.90
2022-08-22T09:50:07.055Z,81.90
2022-08-22T09:53:18.556Z,81.90
2022-08-22T09:56:11.630Z,81.90
2022-08-22T09:59:01.068Z,82.30
2022-08-22T10:01:34.731Z,82.30
2022-08-22T10:04:07.241Z,82.20
2022-08-22T10:07:00.536Z,82.20
2022-08-22T10:09:58.253Z,82.30
2022-08-22T10:15:09.044Z,82.30
2022-08-22T10:17:42.123Z,82.10
2022-08-22T10:20:33.493Z,82.30
2022-08-22T10:23:25.746Z,84.70
2022-08-22T10:26:22.966Z,82.60
2022-08-22T10:29:07.456Z,83.50
2022-08-22T10:31:59.116Z,85.30
2022-08-22T10:34:36.084Z,87.20
2022-08-22T10:37:46.614Z,82.30
2022-08-22T10:40:28.391Z,86.60
2022-08-22T10:43:19.541Z,88.80
2022-08-22T10:45:52.019Z,85.00
2022-08-22T10:48:45.331Z,82.70
2022-08-22T10:51:22.059Z,86.90
2022-08-22T10:54:11.361Z,82.50
2022-08-22T10:57:06.687Z,82.40
2022-08-22T10:59:52.811Z,90.00
2022-08-22T11:02:35.501Z,92.00
2022-08-22T11:05:21.208Z,82.40
2022-08-22T11:08:00.888Z,83.00
2022-08-22T11:10:35.086Z,82.90
2022-08-22T11:13:14.102Z,83.20
2022-08-22T11:15:59.997Z,83.20
2022-08-22T11:18:57.860Z,83.40
2022-08-22T11:21:43.663Z,83.60
2022-08-22T11:24:35.301Z,83.70
2022-08-22T11:27:38.395Z,83.70
2022-08-22T11:30:09.387Z,83.40
2022-08-22T11:32:45.867Z,83.10
2022-08-22T11:35:31.563Z,83.10
2022-08-22T11:38:32.736Z,82.80
2022-08-22T11:41:24.375Z,82.70
2022-08-22T11:44:04.052Z,82.50
2022-08-22T11:46:32.503Z,82.40
2022-08-22T11:49:27.279Z,82.40
2022-08-22T11:52:37.894Z,82.30
2022-08-22T11:55:38.207Z,82.40
2022-08-22T11:58:32.414Z,82.40
2022-08-22T12:01:11.815Z,82.40
2022-08-22T12:03:58.615Z,82.90
2022-08-22T12:06:47.478Z,82.40
2022-08-22T12:09:39.289Z,82.30
2022-08-22T12:12:11.881Z,82.30
2022-08-22T12:14:48.278Z,82.30
2022-08-22T12:17:50.612Z,82.30
2022-08-22T12:20:34.900Z,82.30
2022-08-22T12:23:48.622Z,82.30
2022-08-22T12:26:36.890Z,82.00
2022-08-22T12:29:39.970Z,81.20
2022-08-22T12:32:17.614Z,81.20
2022-08-22T12:35:13.879Z,81.20
2022-08-22T12:37:52.701Z,83.10
2022-08-22T12:40:55.496Z,81.70
2022-08-22T12:43:23.453Z,81.80
2022-08-22T12:46:12.843Z,82.00
2022-08-22T12:48:47.699Z,81.20
2022-08-22T12:51:32.885Z,85.60
2022-08-22T12:54:22.812Z,81.40
2022-08-22T12:57:23.988Z,81.90
2022-08-22T12:59:55.605Z,83.20
2022-08-22T13:02:32.661Z,82.00
2022-08-22T13:05:11.109Z,81.60
2022-08-22T13:07:41.276Z,81.50
2022-08-22T13:10:14.044Z,81.40
2022-08-22T13:12:49.881Z,81.50
2022-08-22T13:15:25.076Z,90.70
2022-08-22T13:17:52.407Z,93.20
2022-08-22T13:20:26.611Z,81.30
2022-08-22T13:22:54.618Z,81.50
2022-08-22T13:25:26.632Z,82.30
2022-08-22T13:27:56.910Z,81.40
2022-08-22T13:30:38.700Z,82.00
2022-08-22T13:33:12.964Z,82.40
2022-08-22T13:35:53.916Z,82.70
2022-08-22T13:38:29.451Z,83.20
2022-08-22T13:40:58.453Z,96.30
2022-08-22T13:43:32.260Z,82.80
2022-08-22T13:46:02.663Z,92.80
2022-08-22T13:48:52.033Z,83.40
2022-08-22T13:51:47.384Z,82.60
2022-08-22T13:54:40.169Z,89.20
2022-08-22T13:57:17.476Z,90.30
2022-08-22T13:59:53.127Z,82.00
2022-08-22T14:02:34.369Z,91.40
2022-08-22T14:05:05.903Z,92.50
2022-08-22T14:07:54.021Z,81.60
2022-08-22T14:10:26.565Z,90.70
2022-08-22T14:12:56.899Z,90.30
2022-08-22T14:15:32.234Z,83.70
2022-08-22T14:18:19.875Z,85.30
2022-08-22T14:20:48.099Z,83.50
2022-08-22T14:23:27.162Z,82.00
2022-08-22T14:25:55.379Z,82.10
2022-08-22T14:28:27.357Z,81.80
2022-08-22T14:31:02.558Z,81.90
2022-08-22T14:33:36.915Z,85.80
2022-08-22T14:36:41.763Z,83.30
2022-08-22T14:39:29.990Z,81.90
2022-08-22T14:42:10.044Z,87.70
2022-08-22T14:44:47.715Z,82.00
2022-08-22T14:48:29.523Z,81.80
2022-08-22T14:50:54.815Z,81.80
2022-08-22T14:53:25.432Z,82.20
2022-08-22T14:56:00.693Z,82.60
2022-08-22T14:58:29.810Z,82.50
2022-08-22T15:01:06.516Z,82.50
2022-08-22T15:03:38.670Z,82.50
2022-08-22T15:06:16.771Z,82.50
2022-08-22T15:08:50.327Z,82.50
2022-08-22T15:11:22.450Z,82.50
2022-08-22T15:13:58.529Z,82.50
2022-08-22T15:16:53.453Z,82.50
2022-08-22T15:19:26.055Z,82.50
2022-08-22T15:22:25.742Z,82.40
2022-08-22T15:25:02.926Z,82.50
2022-08-22T15:27:32.040Z,82.40
2022-08-22T15:30:02.573Z,82.50
2022-08-22T15:32:34.923Z,82.50
2022-08-22T15:35:27.653Z,82.50
2022-08-22T15:38:08.725Z,82.50
2022-08-22T15:40:45.611Z,82.40
2022-08-22T15:43:21.254Z,82.40
2022-08-22T15:45:50.323Z,82.50
2022-08-22T15:48:36.548Z,82.40
2022-08-22T15:51:10.217Z,82.40
2022-08-22T15:53:58.696Z,82.40
2022-08-22T15:56:34.930Z,82.40
2022-08-22T15:59:53.412Z,82.10
2022-08-22T16:02:37.516Z,82.00
2022-08-22T16:05:10.245Z,82.10
2022-08-22T16:07:41.917Z,82.20
2022-08-22T16:10:23.280Z,82.10
2022-08-22T16:13:14.928Z,82.10
2022-08-22T16:15:55.909Z,82.20
2022-08-22T16:18:42.512Z,81.80
2022-08-22T16:21:13.331Z,81.90
2022-08-22T16:23:56.200Z,82.10
2022-08-22T16:26:24.727Z,82.00
2022-08-22T16:29:12.384Z,81.90
2022-08-22T16:31:44.265Z,81.90
2022-08-22T16:34:16.914Z,81.90
2022-08-22T16:37:11.385Z,81.90
2022-08-22T16:39:48.690Z,82.10
2022-08-22T16:42:15.626Z,82.20
2022-08-22T16:44:56.295Z,82.30
2022-08-22T16:47:43.279Z,82.40
2022-08-22T16:50:19.429Z,82.60
2022-08-22T16:52:54.708Z,82.60
2022-08-22T16:55:30.381Z,82.60
2022-08-22T16:58:21.758Z,81.90
2022-08-22T17:00:51.201Z,82.40
2022-08-22T17:03:29.175Z,82.50
2022-08-22T17:06:23.837Z,82.50
2022-08-22T17:09:24.643Z,82.50
2022-08-22T17:12:21.826Z,82.50
2022-08-22T17:15:15.378Z,82.00
2022-08-22T17:18:19.014Z,82.50
2022-08-22T17:21:25.652Z,82.50
2022-08-22T17:24:31.927Z,82.60
2022-08-22T17:27:14.036Z,81.90
2022-08-22T17:29:59.798Z,81.90
2022-08-22T17:33:00.061Z,82.10
2022-08-22T17:35:54.832Z,81.90
2022-08-22T17:38:47.842Z,82.00
2022-08-22T17:41:29.081Z,82.20
2022-08-22T17:44:04.792Z,82.40
2022-08-22T17:46:52.398Z,82.40
2022-08-22T17:49:40.740Z,81.90
2022-08-22T17:52:09.443Z,81.90
2022-08-22T17:55:14.461Z,81.60
2022-08-22T17:57:55.414Z,81.70
2022-08-22T18:00:31.319Z,81.70
2022-08-22T18:03:22.152Z,81.60
2022-08-22T18:06:10.049Z,81.70
2022-08-22T18:11:31.733Z,81.70
2022-08-22T18:14:13.258Z,81.90
2022-08-22T18:16:50.450Z,82.30
2022-08-22T18:19:52.513Z,82.40
2022-08-22T18:22:28.610Z,82.00
2022-08-22T18:25:13.349Z,81.70
2022-08-22T18:27:51.365Z,81.60
2022-08-22T18:30:32.953Z,81.40
2022-08-22T18:33:31.606Z,81.50
2022-08-22T18:36:28.535Z,81.20
2022-08-22T18:39:06.577Z,80.10
2022-08-22T18:41:46.789Z,80.10
2022-08-22T18:44:21.489Z,80.60
2022-08-22T18:46:51.652Z,80.40
2022-08-22T18:49:19.421Z,79.50
2022-08-22T18:52:07.033Z,79.40
2022-08-22T18:55:11.103Z,79.20
2022-08-22T18:58:19.052Z,79.80
2022-08-22T19:00:54.764Z,78.70
2022-08-22T19:04:00.465Z,78.40
2022-08-22T19:07:05.320Z,78.60
2022-08-22T19:09:57.586Z,78.70
2022-08-22T19:12:39.317Z,79.20
2022-08-22T19:15:39.993Z,78.50
2022-08-22T19:18:34.319Z,78.90
2022-08-22T19:21:38.021Z,78.80
2022-08-22T19:24:24.820Z,79.30
2022-08-22T19:27:10.374Z,79.00
2022-08-22T19:29:36.889Z,78.90
2022-08-22T19:32:12.816Z,79.00
2022-08-22T19:34:44.094Z,79.50
2022-08-22T19:37:32.555Z,78.80
2022-08-22T19:40:02.230Z,78.50
2022-08-22T19:42:35.627Z,78.60
2022-08-22T19:45:26.438Z,79.10
2022-08-22T19:47:59.753Z,79.10
2022-08-22T19:50:32.711Z,79.20
2022-08-22T19:53:34.710Z,79.00
2022-08-22T19:58:32.689Z,79.30
2022-08-22T20:01:23.746Z,78.80
2022-08-22T20:04:27.433Z,78.60
2022-08-22T20:07:15.426Z,78.70
2022-08-22T20:09:50.962Z,78.30
2022-08-22T20:12:36.813Z,78.30
2022-08-22T20:15:19.108Z,78.00
2022-08-22T20:18:11.596Z,77.80
2022-08-22T20:20:38.449Z,77.90
2022-08-22T20:23:26.580Z,77.50
2022-08-22T20:25:55.845Z,77.40
2022-08-22T20:28:38.999Z,77.60
2022-08-22T20:31:11.528Z,77.60
2022-08-22T20:33:42.359Z,77.30
2022-08-22T20:36:27.388Z,76.60
2022-08-22T20:39:01.513Z,77.10
2022-08-22T20:41:44.364Z,77.00
2022-08-22T20:44:15.740Z,76.70
2022-08-22T20:46:56.230Z,76.80
2022-08-22T20:49:28.444Z,77.20
2022-08-22T20:52:00.637Z,77.30
2022-08-22T20:54:34.015Z,76.80
2022-08-22T20:57:10.171Z,77.20
2022-08-22T20:59:41.615Z,77.20
2022-08-22T21:02:18.113Z,76.70
2022-08-22T21:04:50.764Z,77.30
2022-08-22T21:07:34.483Z,77.60
2022-08-22T21:10:22.584Z,77.30
2022-08-22T21:13:05.965Z,77.80
2022-08-22T21:15:37.472Z,78.30
2022-08-22T21:18:04.674Z,78.00
2022-08-22T21:20:35.183Z,78.20
2022-08-22T21:23:11.833Z,78.20
2022-08-22T21:25:48.727Z,77.80
2022-08-22T21:28:30.897Z,78.50
2022-08-22T21:30:59.239Z,78.40
2022-08-22T21:33:26.091Z,78.30
2022-08-22T21:36:00.494Z,78.50
2022-08-22T21:38:27.859Z,78.90
2022-08-22T21:41:02.841Z,79.00
2022-08-22T21:43:40.032Z,78.20
2022-08-22T21:46:25.125Z,78.80
2022-08-22T21:49:04.341Z,79.00
2022-08-22T21:51:41.810Z,78.40
2022-08-22T21:54:29.596Z,78.90
2022-08-22T21:56:59.445Z,78.70
2022-08-22T21:59:50.426Z,78.60
2022-08-22T22:02:27.480Z,78.50
2022-08-22T22:04:54.151Z,78.00
2022-08-22T22:07:20.844Z,78.50
2022-08-22T22:09:54.665Z,79.10
2022-08-22T22:12:22.897Z,78.40
2022-08-22T22:14:49.933Z,78.40
2022-08-22T22:17:17.671Z,78.10
2022-08-22T22:19:44.740Z,78.40
2022-08-22T22:22:11.325Z,78.40
2022-08-22T22:24:37.941Z,78.40
2022-08-22T22:27:04.835Z,78.40
2022-08-22T22:29:44.031Z,77.90
2022-08-22T22:32:10.665Z,78.80
2022-08-22T22:34:38.980Z,78.40
2022-08-22T22:37:09.730Z,77.90
2022-08-22T22:39:36.703Z,78.40
2022-08-22T22:42:03.640Z,78.50
2022-08-22T22:44:30.312Z,78.40
2022-08-22T22:46:58.274Z,77.80
2022-08-22T22:49:25.014Z,78.40
2022-08-22T22:51:51.943Z,78.40
2022-08-22T22:54:18.611Z,79.00
2022-08-22T22:56:54.008Z,77.80
2022-08-22T22:59:24.654Z,78.30
2022-08-22T23:02:11.339Z,78.30
2022-08-22T23:04:43.608Z,77.80
2022-08-22T23:07:12.022Z,77.90
2022-08-22T23:09:45.195Z,78.30
2022-08-22T23:12:13.301Z,78.40
2022-08-22T23:14:40.493Z,78.40
2022-08-22T23:17:07.167Z,78.50
2022-08-22T23:19:34.017Z,78.50
2022-08-22T23:22:01.157Z,78.60
2022-08-22T23:24:30.313Z,78.50
2022-08-22T23:26:57.759Z,78.60
2022-08-22T23:29:25.006Z,78.50
2022-08-22T23:31:57.708Z,78.50
2022-08-22T23:34:27.513Z,78.60
2022-08-22T23:36:57.102Z,78.00
2022-08-22T23:39:25.221Z,78.50
2022-08-22T23:41:52.065Z,78.60
2022-08-22T23:44:21.629Z,78.60
2022-08-22T23:46:48.317Z,78.50
2022-08-22T23:49:15.561Z,78.50
2022-08-22T23:51:43.956Z,78.50
2022-08-22T23:54:11.590Z,78.60
2022-08-22T23:56:59.572Z,78.50
2022-08-22T23:59:30.540Z,78.50
